Atoka, TN

1:36 PM CDT on October 30, 2014 (GMT -0500)
Memphis International | Change Station
CLOSE
Current Station
Airport
Location: Memphis,
Elevation: 331 ft
Nearby Weather Stations

Elev 331 ft 35.06 °N, 89.99 °W | Updated 42 minutes ago

Clear
Clear
67 °F
Feels Like 67 °F
N
0
Wind Variable Wind from North

Today
High -- | Low -- °F
--% Chance of Precip.
Yesterday
High -- | Low -- °F
Precip. -- in
7:18 AM 6:06 PM
Waxing Crescent, 46% visible
Pressure 30.13 in
Visibility 10.0 miles
Clouds Clear
Dew Point 39 °F
Humidity 36%
Rainfall 0.00 in
Snow Depth Not available.
UV 5 out of 12
Pollen .90 out of 12
Air Quality Not available.
Flu Activity Not available.
METAR KMEM 301754Z 00000KT 10SM CLR 19/04 A3013 RMK AO2 SLP202 T01940039 10194 20072 58012

More Conditions Fewer Conditions

Pressure 30.13 in
Visibility 10.0 miles
Clouds Clear
Dew Point 39 °F
Humidity 36%
Rainfall 0.00 in
Snow Depth Not available.
UV 5 out of 12
Pollen .90 out of 12
Air Quality Not available.
Flu Activity Not available.
METAR KMEM 301754Z 00000KT 10SM CLR 19/04 A3013 RMK AO2 SLP202 T01940039 10194 20072 58012

More Conditions Fewer Conditions

10-Day Weather Forecast

Almanac

Astronomy

Oct. 30, 2014 Rise Set
Actual Time
Civil Twilight
Nautical Twilight
Astronomical Twilight
Moon
Length of Visible Light
Length of Day
Tomorrow will be .
, % of the Moon is Illuminated

Today's Extremes

State Highs State Lows

Community

WunderPhotos

Upload Photos

1,766,423 photos uploaded!

WunderBlogs® & News

Nearby

Air Quality

  Air Quality AQ Index Pollutant
Not available.

Snow Depth

Station Depth Elevation

Earthquake Activity

City Distance Mag. Time & Date
Minimum magnitude displayed is 2.5.

Coastal Water Temperatures

Place Temperature

Nearby Weather Stations